Richards, Missouri
Current Conditions -  °F | °C
As of 5:35 PM on Saturday 20 Dec 2014 (Local Time) from KPTS Reporting Station
Scattered Clouds Scattered Clouds  
Wind Chill: 37°   Ceiling: Unl
Heat Index: 41°   Visibility: 10mi
Dew Point: 37°   Wind: 6mph
Humidity: 85%   Direction: 190°S
Pressure: 30.16"   Gusts: NA
Location:  37.91°N, 94.56°W
Report Text: KPTS 202335Z AUTO 19005KT 10SM SCT022 05/03 A3016 RMK AO2 T00500026
Loading
Personal Weather Stations






























Interactive Weather Map New forecast layout! Learn more

10-Day Weather Forecast

Advertisements
Track Severe Weather on mobile